Time;durP1;ratioP1;P1;durP2;ratioP2;P2;SDS_P1;SDS_P2;PMS_P1;PMS_P2;Temp;Humidity;BMP_temperature;BMP_pressure;BME280_temperature;BME280_humidity;BME280_pressure;Samples;Min_cycle;Max_cycle;Signal;HPM_P1;HPM_P2
2021/12/19 00:04:27;;;;;;;0.80;0.63;;;6.60;99.90;;;;;;5088506;28;20469;-82
2021/12/19 00:09:37;;;;;;;0.80;0.70;;;6.50;99.90;;;;;;5089372;28;20429;-83
2021/12/19 00:12:04;;;;;;;0.80;0.60;;;6.50;99.90;;;;;;5071481;28;20447;-83
2021/12/19 00:14:30;;;;;;;0.90;0.80;;;6.50;99.90;;;;;;5089629;28;20434;-83
2021/12/19 00:16:55;;;;;;;0.80;0.70;;;6.50;99.90;;;;;;5089316;28;20454;-83
2021/12/19 00:19:21;;;;;;;1.37;0.93;;;6.50;99.90;;;;;;5086936;28;20411;-83
2021/12/19 00:21:47;;;;;;;0.80;0.70;;;6.50;99.90;;;;;;5069636;28;20231;-83
2021/12/19 00:24:13;;;;;;;0.80;0.70;;;6.50;99.90;;;;;;5089515;28;20475;-83
2021/12/19 00:26:39;;;;;;;0.80;0.70;;;6.50;99.90;;;;;;5071036;28;20189;-83
2021/12/19 00:29:05;;;;;;;0.80;0.67;;;6.50;99.90;;;;;;5088939;28;20800;-82
2021/12/19 00:31:31;;;;;;;0.80;0.70;;;6.50;99.90;;;;;;5088910;28;20299;-83
2021/12/19 00:33:58;;;;;;;0.80;0.60;;;6.50;99.90;;;;;;5087863;28;20215;-83
2021/12/19 00:36:24;;;;;;;0.80;0.63;;;6.50;99.90;;;;;;5089631;28;20497;-83
2021/12/19 00:38:50;;;;;;;0.80;0.70;;;6.50;99.90;;;;;;5089512;28;20435;-82
2021/12/19 00:41:16;;;;;;;1.10;1.00;;;6.50;99.90;;;;;;5089665;28;20461;-84
2021/12/19 00:46:09;;;;;;;0.80;0.70;;;6.50;99.90;;;;;;5088780;28;20525;-83
2021/12/19 00:48:39;;;;;;;0.90;0.80;;;6.60;99.90;;;;;;5089232;28;21078;-83
2021/12/19 00:51:08;;;;;;;0.80;0.70;;;6.60;99.90;;;;;;5090255;28;20493;-83
2021/12/19 00:53:34;;;;;;;0.80;0.70;;;6.60;99.90;;;;;;5073673;28;20514;-83
2021/12/19 00:56:03;;;;;;;0.80;0.70;;;6.60;99.90;;;;;;5093367;28;21304;-82
2021/12/19 00:58:28;;;;;;;0.80;0.80;;;6.60;99.90;;;;;;5091397;28;20954;-83
2021/12/19 01:00:54;;;;;;;0.80;0.60;;;6.70;99.90;;;;;;5093268;28;20450;-83
2021/12/19 01:03:21;;;;;;;0.80;0.70;;;6.70;99.90;;;;;;5092235;28;20192;-83
2021/12/19 01:05:47;;;;;;;0.80;0.60;;;6.70;99.90;;;;;;5075073;28;20321;-83
2021/12/19 01:08:13;;;;;;;0.80;0.70;;;6.70;99.90;;;;;;5090667;28;20458;-83
2021/12/19 01:10:40;;;;;;;0.80;0.80;;;6.70;99.90;;;;;;5092044;28;20617;-83
2021/12/19 01:13:06;;;;;;;0.80;0.70;;;6.70;99.90;;;;;;5092768;28;20437;-82
2021/12/19 01:15:32;;;;;;;1.50;0.90;;;6.70;99.90;;;;;;5092502;28;20526;-83
2021/12/19 01:17:58;;;;;;;0.80;0.60;;;6.70;99.90;;;;;;5092394;28;20192;-83
2021/12/19 01:20:28;;;;;;;0.80;0.60;;;6.70;99.90;;;;;;5093149;28;20593;-83
2021/12/19 01:22:54;;;;;;;0.80;0.70;;;6.70;99.90;;;;;;5093182;28;20958;-83
2021/12/19 01:25:21;;;;;;;1.33;0.73;;;6.70;99.90;;;;;;5074624;28;20570;-83
2021/12/19 01:27:47;;;;;;;0.80;0.70;;;6.70;99.90;;;;;;5091268;28;20435;-82
2021/12/19 01:30:14;;;;;;;0.80;0.70;;;6.70;99.90;;;;;;5092935;28;20445;-83
2021/12/19 01:32:40;;;;;;;0.80;0.70;;;6.70;99.90;;;;;;5090070;28;20419;-83
2021/12/19 01:35:08;;;;;;;0.80;0.70;;;6.70;99.90;;;;;;5092295;28;20439;-83
2021/12/19 01:37:34;;;;;;;0.80;0.60;;;6.70;99.90;;;;;;5093196;28;20430;-82
2021/12/19 01:39:59;;;;;;;0.80;0.70;;;6.70;99.90;;;;;;5074370;28;20442;-82
2021/12/19 01:42:37;;;;;;;0.80;0.73;;;6.70;99.90;;;;;;5091237;28;20181;-83
2021/12/19 01:45:05;;;;;;;0.80;0.60;;;6.70;99.90;;;;;;5089744;28;20642;-83
2021/12/19 01:47:31;;;;;;;0.80;0.70;;;6.60;99.90;;;;;;5091949;28;20427;-82
2021/12/19 01:49:57;;;;;;;0.80;0.63;;;6.60;99.90;;;;;;5092768;28;20427;-82
2021/12/19 01:52:23;;;;;;;0.80;0.63;;;6.60;99.90;;;;;;5091974;28;20192;-82
2021/12/19 01:54:50;;;;;;;0.80;0.60;;;6.60;99.90;;;;;;5092472;28;20177;-82
2021/12/19 01:57:16;;;;;;;0.80;0.70;;;6.60;99.90;;;;;;5092262;28;20463;-82
2021/12/19 01:59:41;;;;;;;0.80;0.70;;;6.70;99.90;;;;;;5091215;28;24267;-82
2021/12/19 02:02:07;;;;;;;0.80;0.70;;;6.60;99.90;;;;;;5072312;28;20797;-82
2021/12/19 02:04:33;;;;;;;0.80;0.60;;;6.60;99.90;;;;;;5073307;28;20212;-83
2021/12/19 02:07:00;;;;;;;0.80;0.67;;;6.60;99.90;;;;;;5074096;28;20196;-81
2021/12/19 02:09:26;;;;;;;0.80;0.60;;;6.60;99.90;;;;;;5091972;28;20927;-82
2021/12/19 02:11:52;;;;;;;0.80;0.70;;;6.60;99.90;;;;;;5091482;28;20431;-83
2021/12/19 02:14:20;;;;;;;0.80;0.80;;;6.70;99.90;;;;;;5091594;28;20423;-83
2021/12/19 02:16:46;;;;;;;0.80;0.70;;;6.60;99.90;;;;;;5090581;28;20454;-83
2021/12/19 02:19:12;;;;;;;0.80;0.67;;;6.70;99.90;;;;;;5092152;28;20431;-83
2021/12/19 02:21:39;;;;;;;0.80;0.70;;;6.70;99.90;;;;;;5085158;28;20482;-83
2021/12/19 02:24:08;;;;;;;0.80;0.60;;;6.60;99.90;;;;;;5073300;28;20692;-82
2021/12/19 02:26:36;;;;;;;0.80;0.70;;;6.70;99.90;;;;;;5091156;28;20439;-82
2021/12/19 02:29:02;;;;;;;0.80;0.60;;;6.70;99.90;;;;;;5084490;28;20443;-83
2021/12/19 02:31:29;;;;;;;2.63;2.43;;;6.70;99.90;;;;;;5091852;28;21083;-82
2021/12/19 02:34:06;;;;;;;0.80;0.60;;;6.70;99.90;;;;;;5089999;28;20530;-82
2021/12/19 02:39:47;;;;;;;1.43;1.33;;;6.70;99.90;;;;;;5091363;28;20459;-83
2021/12/19 02:50:25;;;;;;;0.80;0.70;;;6.80;99.90;;;;;;5089656;28;20954;-82
2021/12/19 02:52:52;;;;;;;0.80;0.63;;;6.80;99.90;;;;;;5073027;28;20427;-83
2021/12/19 02:55:19;;;;;;;0.80;0.60;;;6.80;99.90;;;;;;5091170;28;20527;-83
2021/12/19 02:57:47;;;;;;;0.80;0.67;;;6.80;99.90;;;;;;5090640;28;20481;-83
2021/12/19 03:00:18;;;;;;;0.80;0.70;;;6.80;99.90;;;;;;5090929;28;20427;-83
2021/12/19 03:02:43;;;;;;;0.80;0.70;;;6.90;99.90;;;;;;5091346;28;20484;-83
2021/12/19 03:05:09;;;;;;;0.80;0.60;;;6.80;99.90;;;;;;5090236;28;21238;-83
2021/12/19 03:07:40;;;;;;;0.80;0.60;;;6.90;99.90;;;;;;5088110;28;20197;-83
2021/12/19 03:10:36;;;;;;;0.80;0.60;;;6.90;99.90;;;;;;5089766;28;20189;-82
2021/12/19 03:18:19;;;;;;;0.80;0.60;;;6.90;99.90;;;;;;5091029;28;20980;-83
2021/12/19 03:20:44;;;;;;;0.80;0.60;;;6.90;99.90;;;;;;5090519;28;20443;-83
2021/12/19 03:23:12;;;;;;;1.63;1.53;;;6.90;99.90;;;;;;5090308;28;20280;-83
2021/12/19 03:25:38;;;;;;;0.80;0.60;;;6.90;99.90;;;;;;5089375;28;20213;-83
2021/12/19 03:28:06;;;;;;;0.80;0.70;;;7.00;99.90;;;;;;5090168;28;20431;-83
2021/12/19 03:30:35;;;;;;;1.03;0.93;;;7.00;99.90;;;;;;5090514;28;20496;-83
2021/12/19 03:33:01;;;;;;;0.80;0.60;;;7.00;99.90;;;;;;5090328;28;20964;-83
2021/12/19 03:35:30;;;;;;;0.80;0.70;;;7.00;99.90;;;;;;5089781;28;20435;-83
2021/12/19 03:37:58;;;;;;;0.80;0.60;;;7.00;99.90;;;;;;5087701;28;20649;-83
2021/12/19 03:40:34;;;;;;;0.90;0.90;;;7.00;99.90;;;;;;5090077;28;20541;-83
2021/12/19 03:43:01;;;;;;;0.80;0.60;;;7.00;99.90;;;;;;5088734;28;20926;-83
2021/12/19 03:45:26;;;;;;;0.80;0.70;;;7.00;99.90;;;;;;5090211;28;21000;-83
2021/12/19 03:47:53;;;;;;;0.80;0.70;;;7.00;99.90;;;;;;5072069;28;20427;-83
2021/12/19 03:50:22;;;;;;;2.43;2.23;;;7.00;99.90;;;;;;5089797;28;20181;-83
2021/12/19 03:52:49;;;;;;;0.80;0.70;;;7.00;99.90;;;;;;5090221;28;20570;-83
2021/12/19 03:55:15;;;;;;;0.80;0.70;;;7.10;99.90;;;;;;5089897;28;20442;-82
2021/12/19 03:57:41;;;;;;;0.80;0.70;;;7.00;99.90;;;;;;5089876;28;20514;-83
2021/12/19 04:00:12;;;;;;;4.83;1.27;;;7.00;99.90;;;;;;5088132;28;20193;-83
2021/12/19 04:02:37;;;;;;;0.80;0.80;;;7.10;99.90;;;;;;5076699;28;20209;-83
2021/12/19 04:05:03;;;;;;;0.80;0.60;;;7.10;99.90;;;;;;5089872;28;20922;-83
2021/12/19 04:07:29;;;;;;;0.80;0.70;;;7.10;99.90;;;;;;5089832;28;20696;-83
2021/12/19 04:09:55;;;;;;;0.80;0.60;;;7.10;99.90;;;;;;5072044;28;20238;-83
2021/12/19 04:12:24;;;;;;;0.80;0.63;;;7.10;99.90;;;;;;5090067;28;20645;-83
2021/12/19 04:14:50;;;;;;;0.80;0.60;;;7.10;99.90;;;;;;5089543;28;20443;-83
2021/12/19 04:17:15;;;;;;;0.80;0.67;;;7.10;99.90;;;;;;5087804;28;20446;-84
2021/12/19 04:19:41;;;;;;;0.80;0.60;;;7.10;99.90;;;;;;5089916;28;20189;-83
2021/12/19 04:22:06;;;;;;;0.80;0.67;;;7.10;99.90;;;;;;5089208;28;20229;-84
2021/12/19 04:24:32;;;;;;;0.80;0.63;;;7.10;99.90;;;;;;5089120;28;20225;-83
2021/12/19 04:26:58;;;;;;;0.80;0.60;;;7.10;99.90;;;;;;5070490;28;20660;-83
2021/12/19 04:29:25;;;;;;;0.80;0.63;;;7.10;99.90;;;;;;5089479;28;20427;-83
2021/12/19 04:31:51;;;;;;;0.80;0.60;;;7.10;99.90;;;;;;5088369;28;20200;-82
2021/12/19 04:34:17;;;;;;;0.80;0.60;;;7.10;99.90;;;;;;5071043;28;20430;-83
2021/12/19 04:36:46;;;;;;;0.80;0.60;;;7.10;99.90;;;;;;5071087;28;20438;-82
2021/12/19 04:55:22;;;;;;;0.80;0.70;;;7.10;99.90;;;;;;5089255;28;20439;-83
2021/12/19 05:00:23;;;;;;;0.80;0.60;;;7.10;99.90;;;;;;5084590;28;20454;-83
2021/12/19 05:02:57;;;;;;;0.80;0.70;;;7.10;99.90;;;;;;5069581;28;20436;-82
2021/12/19 05:05:47;;;;;;;0.80;0.60;;;7.10;99.90;;;;;;5089427;28;20475;-83
2021/12/19 05:16:25;;;;;;;0.80;0.60;;;7.10;99.90;;;;;;5089185;28;20426;-82
2021/12/19 05:18:53;;;;;;;0.80;0.70;;;7.10;99.90;;;;;;5087785;28;20443;-83
2021/12/19 05:21:24;;;;;;;0.80;0.60;;;7.10;99.90;;;;;;5070449;28;20236;-83
2021/12/19 05:26:16;;;;;;;0.80;0.60;;;7.20;99.90;;;;;;5089004;28;20459;-82
2021/12/19 05:28:41;;;;;;;0.80;0.70;;;7.20;99.90;;;;;;5089352;28;20185;-83
2021/12/19 05:31:07;;;;;;;0.80;0.63;;;7.20;99.90;;;;;;5089195;28;20941;-83
2021/12/19 05:33:32;;;;;;;0.80;0.60;;;7.20;99.90;;;;;;5088338;28;20185;-83
2021/12/19 05:46:36;;;;;;;0.80;0.70;;;7.20;99.90;;;;;;5100904;28;20940;-83
2021/12/19 05:49:04;;;;;;;0.80;0.60;;;7.20;99.90;;;;;;5092412;28;20526;-82
2021/12/19 05:51:30;;;;;;;0.80;0.70;;;7.20;99.90;;;;;;5091533;28;20549;-82
2021/12/19 05:53:55;;;;;;;0.80;0.60;;;7.20;99.90;;;;;;5092979;28;20925;-83
2021/12/19 05:56:21;;;;;;;0.80;0.60;;;7.20;99.90;;;;;;5092259;28;20446;-82
2021/12/19 05:58:46;;;;;;;0.80;0.70;;;7.20;99.90;;;;;;5092384;28;20177;-82
2021/12/19 06:01:12;;;;;;;0.80;0.80;;;7.20;99.90;;;;;;5088555;28;20177;-82
2021/12/19 06:03:37;;;;;;;0.80;0.60;;;7.20;99.90;;;;;;5091592;28;20182;-83
2021/12/19 06:06:03;;;;;;;0.80;0.60;;;7.20;99.90;;;;;;5090413;28;20188;-81
2021/12/19 06:08:28;;;;;;;0.80;0.60;;;7.20;99.90;;;;;;5091393;28;20184;-81
2021/12/19 06:10:54;;;;;;;0.80;0.50;;;7.20;99.90;;;;;;5092145;28;20200;-81
2021/12/19 06:13:19;;;;;;;0.80;0.60;;;7.30;99.90;;;;;;5089791;28;20206;-82
2021/12/19 06:15:45;;;;;;;0.80;0.70;;;7.30;99.90;;;;;;5087529;28;20191;-82
2021/12/19 06:18:11;;;;;;;0.80;0.60;;;7.30;99.90;;;;;;5090200;28;20227;-82
2021/12/19 06:20:36;;;;;;;0.80;0.70;;;7.20;99.90;;;;;;5091335;28;20177;-84
2021/12/19 06:23:02;;;;;;;0.80;0.60;;;7.20;99.90;;;;;;5091791;28;20257;-84
2021/12/19 06:25:28;;;;;;;0.80;0.70;;;7.20;99.90;;;;;;5089799;28;20220;-83
2021/12/19 06:27:54;;;;;;;0.80;0.70;;;7.20;99.90;;;;;;5090856;28;20423;-83
2021/12/19 06:30:19;;;;;;;0.80;0.60;;;7.20;99.90;;;;;;5071174;28;21003;-83
2021/12/19 06:32:45;;;;;;;0.80;0.70;;;7.20;99.90;;;;;;5091324;28;20520;-83
2021/12/19 06:35:18;;;;;;;1.20;1.10;;;7.20;99.90;;;;;;5087860;28;20193;-82
2021/12/19 06:37:45;;;;;;;0.80;0.67;;;7.20;99.90;;;;;;5091272;28;20181;-83
2021/12/19 06:40:14;;;;;;;0.80;0.60;;;7.20;99.90;;;;;;5073159;28;20955;-82
2021/12/19 06:42:39;;;;;;;0.80;0.60;;;7.20;99.90;;;;;;5089153;28;20446;-83
2021/12/19 06:45:06;;;;;;;0.90;0.80;;;7.20;99.90;;;;;;5090473;28;20866;-83
2021/12/19 06:47:32;;;;;;;0.80;0.63;;;7.20;99.90;;;;;;5098696;28;20189;-83
2021/12/19 06:49:57;;;;;;;0.80;0.70;;;7.20;99.90;;;;;;5096979;28;20794;-82
2021/12/19 06:52:23;;;;;;;0.80;0.70;;;7.20;99.90;;;;;;5089760;28;20447;-82
2021/12/19 06:54:49;;;;;;;0.80;0.70;;;7.20;99.90;;;;;;5079672;28;20184;-82
2021/12/19 06:57:14;;;;;;;0.80;0.60;;;7.20;99.90;;;;;;5090449;28;20197;-82
2021/12/19 06:59:40;;;;;;;0.80;0.60;;;7.20;99.90;;;;;;5089082;28;20265;-83
2021/12/19 07:02:05;;;;;;;0.80;0.63;;;7.20;99.90;;;;;;5090583;28;20197;-83
2021/12/19 07:04:31;;;;;;;0.80;0.70;;;7.20;99.90;;;;;;5090988;28;20228;-83
2021/12/19 07:06:56;;;;;;;1.00;0.87;;;7.20;99.90;;;;;;5091161;28;20193;-82
2021/12/19 07:09:22;;;;;;;0.80;0.70;;;7.30;99.90;;;;;;5084069;28;20242;-83
2021/12/19 07:11:48;;;;;;;0.80;0.60;;;7.30;99.90;;;;;;5093027;28;20740;-82
2021/12/19 07:14:13;;;;;;;0.80;0.60;;;7.30;99.90;;;;;;5089677;28;20188;-82
2021/12/19 07:16:39;;;;;;;0.80;0.70;;;7.30;99.90;;;;;;5086913;28;20184;-83
2021/12/19 07:19:04;;;;;;;0.80;0.70;;;7.30;99.90;;;;;;5089753;28;20189;-82
2021/12/19 07:21:30;;;;;;;0.80;0.60;;;7.30;99.90;;;;;;5091358;28;20225;-83
2021/12/19 07:23:56;;;;;;;0.80;0.60;;;7.30;99.90;;;;;;5090360;28;20217;-81
2021/12/19 07:26:22;;;;;;;0.80;0.60;;;7.30;99.90;;;;;;5067113;28;20177;-82
2021/12/19 07:28:49;;;;;;;0.80;0.60;;;7.30;99.90;;;;;;5089347;28;20793;-81
2021/12/19 07:31:19;;;;;;;0.80;0.70;;;7.30;99.90;;;;;;5088684;28;20454;-83
2021/12/19 07:33:46;;;;;;;0.80;0.60;;;7.30;99.90;;;;;;5090377;28;20538;-83
2021/12/19 07:36:13;;;;;;;0.80;0.70;;;7.40;99.90;;;;;;5090865;28;20431;-82
2021/12/19 07:38:52;;;;;;;0.80;0.60;;;7.40;99.90;;;;;;5089590;28;20423;-81
2021/12/19 07:41:18;;;;;;;0.97;0.80;;;7.40;99.90;;;;;;5084304;28;20532;-81
2021/12/19 07:43:44;;;;;;;0.80;0.60;;;7.40;99.90;;;;;;5087515;28;20439;-82
2021/12/19 07:46:09;;;;;;;0.80;0.60;;;7.40;99.90;;;;;;5071213;28;20508;-82
2021/12/19 07:48:35;;;;;;;0.80;0.60;;;7.40;99.90;;;;;;5089415;28;20686;-82
2021/12/19 07:51:00;;;;;;;0.80;0.60;;;7.30;99.90;;;;;;5071628;28;20189;-84
2021/12/19 07:53:26;;;;;;;0.80;0.60;;;7.40;99.90;;;;;;5089182;28;20190;-83
2021/12/19 07:55:51;;;;;;;0.80;0.60;;;7.40;99.90;;;;;;5088054;28;20653;-81
2021/12/19 07:58:17;;;;;;;0.80;0.60;;;7.40;99.90;;;;;;5089548;28;20602;-83
2021/12/19 08:00:42;;;;;;;0.80;0.60;;;7.40;99.90;;;;;;5069210;28;20177;-84
2021/12/19 08:03:08;;;;;;;0.80;0.60;;;7.50;99.90;;;;;;5070562;28;20185;-83
2021/12/19 08:05:34;;;;;;;0.80;0.70;;;7.50;99.90;;;;;;5085558;28;20228;-84
2021/12/19 08:08:02;;;;;;;0.80;0.70;;;7.50;99.90;;;;;;5086380;28;20181;-83
2021/12/19 08:12:57;;;;;;;1.07;0.90;;;7.50;99.90;;;;;;5089006;28;20443;-82
2021/12/19 08:15:22;;;;;;;0.80;0.60;;;7.50;99.90;;;;;;5087209;28;20457;-83
2021/12/19 08:17:48;;;;;;;0.80;0.60;;;7.50;99.90;;;;;;5086878;28;20264;-84
2021/12/19 08:20:16;;;;;;;0.80;0.60;;;7.50;99.90;;;;;;5070855;28;20193;-83
2021/12/19 08:22:42;;;;;;;0.80;0.60;;;7.50;99.90;;;;;;5071014;28;20735;-83
2021/12/19 08:25:08;;;;;;;0.80;0.60;;;7.50;99.90;;;;;;5085042;28;20570;-83
2021/12/19 08:27:34;;;;;;;0.80;0.60;;;7.50;99.90;;;;;;5098249;28;20226;-83
2021/12/19 08:30:00;;;;;;;0.80;0.60;;;7.50;99.90;;;;;;5085621;28;20455;-82
2021/12/19 08:32:26;;;;;;;0.80;0.60;;;7.50;99.90;;;;;;5084267;28;20593;-82
2021/12/19 08:34:52;;;;;;;0.80;0.63;;;7.50;99.90;;;;;;5066202;28;20531;-82
2021/12/19 08:37:18;;;;;;;0.80;0.60;;;7.60;99.90;;;;;;5079653;28;20181;-83
2021/12/19 08:39:45;;;;;;;0.80;0.70;;;7.50;99.90;;;;;;5086603;28;20193;-83
2021/12/19 08:42:11;;;;;;;0.80;0.60;;;7.60;99.90;;;;;;5074791;28;20443;-83
2021/12/19 08:44:37;;;;;;;0.80;0.70;;;7.60;99.90;;;;;;5084906;28;20539;-82
2021/12/19 08:47:03;;;;;;;0.80;0.70;;;7.60;99.90;;;;;;5073860;28;20816;-82
2021/12/19 08:49:29;;;;;;;0.80;0.60;;;7.60;99.90;;;;;;5088493;28;20443;-82
2021/12/19 08:51:55;;;;;;;0.80;0.60;;;7.60;99.90;;;;;;5084236;28;20454;-82
2021/12/19 08:54:22;;;;;;;0.80;0.60;;;7.60;99.90;;;;;;5070122;28;20409;-83
2021/12/19 08:56:50;;;;;;;0.80;0.60;;;7.60;99.90;;;;;;5087092;28;20683;-82
2021/12/19 08:59:16;;;;;;;0.80;0.60;;;7.60;99.90;;;;;;5086576;28;20472;-83
2021/12/19 09:01:42;;;;;;;0.80;0.60;;;7.60;99.90;;;;;;5089243;28;21065;-82
2021/12/19 09:04:07;;;;;;;0.80;0.60;;;7.60;99.90;;;;;;5086579;28;20220;-82
2021/12/19 09:06:34;;;;;;;0.80;0.60;;;7.60;99.90;;;;;;5088227;28;20185;-82
2021/12/19 09:09:01;;;;;;;0.80;0.70;;;7.60;99.90;;;;;;5084585;28;20225;-83
2021/12/19 09:11:27;;;;;;;0.80;0.60;;;7.70;99.90;;;;;;5087165;28;20579;-83
2021/12/19 09:13:52;;;;;;;0.80;0.60;;;7.70;99.90;;;;;;5089272;28;20529;-83
2021/12/19 09:16:18;;;;;;;0.80;0.60;;;7.70;99.90;;;;;;5093660;28;20212;-82
2021/12/19 09:18:44;;;;;;;0.80;0.60;;;7.70;99.90;;;;;;5063108;28;20653;-84
2021/12/19 09:21:09;;;;;;;0.90;0.80;;;7.70;99.90;;;;;;5090391;28;20281;-83
2021/12/19 09:23:35;;;;;;;0.80;0.60;;;7.70;99.90;;;;;;5091830;28;20188;-83
2021/12/19 09:26:01;;;;;;;0.80;0.60;;;7.80;99.90;;;;;;5073107;28;20229;-84
2021/12/19 09:28:26;;;;;;;0.80;0.60;;;7.80;99.90;;;;;;5089601;28;20191;-84
2021/12/19 09:30:52;;;;;;;0.80;0.60;;;7.80;99.90;;;;;;5092728;28;20427;-83
2021/12/19 09:33:18;;;;;;;0.80;0.60;;;7.80;99.90;;;;;;5091297;28;20272;-83
2021/12/19 09:35:43;;;;;;;0.90;0.80;;;7.80;99.90;;;;;;5081215;28;20224;-83
2021/12/19 09:38:09;;;;;;;0.80;0.60;;;7.80;99.90;;;;;;5092130;28;20710;-83
2021/12/19 09:40:38;;;;;;;1.30;1.13;;;7.90;99.90;;;;;;5092376;28;20188;-84
2021/12/19 09:43:09;;;;;;;0.80;0.60;;;7.90;99.90;;;;;;5090286;28;20185;-83
2021/12/19 09:45:34;;;;;;;0.80;0.67;;;7.90;99.90;;;;;;5088232;28;20474;-84
2021/12/19 09:48:00;;;;;;;0.80;0.60;;;7.90;99.90;;;;;;5092676;28;20526;-83
2021/12/19 09:50:27;;;;;;;0.80;0.60;;;7.90;99.90;;;;;;5091767;28;20185;-82
2021/12/19 09:52:53;;;;;;;0.80;0.60;;;7.90;99.90;;;;;;5073881;28;20187;-83
2021/12/19 09:55:21;;;;;;;0.80;0.60;;;7.90;99.90;;;;;;5089585;28;20442;-83
2021/12/19 09:57:52;;;;;;;0.80;0.60;;;7.90;99.90;;;;;;5088890;28;20189;-83
2021/12/19 10:00:19;;;;;;;0.80;0.60;;;7.90;99.90;;;;;;5086109;28;20435;-83
2021/12/19 10:02:45;;;;;;;0.80;0.60;;;7.90;99.90;;;;;;5089049;28;20443;-83
2021/12/19 10:05:25;;;;;;;0.80;0.60;;;7.90;99.90;;;;;;5088772;28;20539;-84
2021/12/19 10:07:57;;;;;;;0.80;0.60;;;7.90;99.90;;;;;;5092947;28;20502;-84
2021/12/19 10:10:52;;;;;;;0.80;0.60;;;7.90;99.90;;;;;;5088438;28;20443;-84
2021/12/19 10:13:33;;;;;;;0.80;0.60;;;7.90;99.90;;;;;;5082775;28;20467;-83
2021/12/19 10:16:00;;;;;;;0.80;0.60;;;8.00;99.90;;;;;;5092260;28;20424;-83
2021/12/19 10:18:25;;;;;;;1.00;0.90;;;8.00;99.90;;;;;;5090982;28;20851;-83
2021/12/19 10:21:00;;;;;;;0.90;0.70;;;8.00;99.90;;;;;;5086651;28;20451;-83
2021/12/19 10:23:30;;;;;;;0.80;0.60;;;8.00;99.90;;;;;;5089537;28;20188;-83
2021/12/19 10:25:59;;;;;;;0.80;0.60;;;8.00;99.90;;;;;;5091740;28;20828;-84
2021/12/19 10:28:25;;;;;;;0.80;0.60;;;8.00;99.90;;;;;;5088790;28;20462;-83
2021/12/19 10:30:51;;;;;;;0.80;0.60;;;8.00;99.90;;;;;;5092115;28;20439;-82
2021/12/19 10:33:22;;;;;;;0.80;0.60;;;8.00;99.90;;;;;;5092741;28;20431;-83
2021/12/19 10:35:56;;;;;;;0.93;0.83;;;8.00;99.90;;;;;;5101511;28;20224;-83
2021/12/19 10:38:32;;;;;;;0.80;0.60;;;8.10;99.90;;;;;;5074173;28;20446;-83
2021/12/19 10:41:09;;;;;;;0.93;0.83;;;8.20;99.90;;;;;;5107565;28;20435;-83
2021/12/19 10:43:58;;;;;;;0.80;0.60;;;8.30;99.90;;;;;;5061149;28;20903;-83
2021/12/19 10:46:31;;;;;;;0.80;0.60;;;8.60;99.90;;;;;;5089876;28;20445;-84
2021/12/19 10:48:57;;;;;;;0.80;0.60;;;8.50;99.90;;;;;;5073035;28;20512;-84
2021/12/19 10:51:24;;;;;;;0.80;0.60;;;8.50;99.90;;;;;;5091785;28;20427;-83
2021/12/19 10:53:53;;;;;;;0.80;0.60;;;8.40;99.90;;;;;;5089072;28;20443;-83
2021/12/19 10:56:20;;;;;;;0.80;0.70;;;8.40;99.90;;;;;;5090307;28;20875;-83
2021/12/19 10:58:56;;;;;;;0.80;0.60;;;8.40;99.90;;;;;;5088430;28;20457;-82
2021/12/19 11:01:36;;;;;;;0.87;0.60;;;8.40;99.90;;;;;;5088364;28;20443;-82
2021/12/19 11:04:10;;;;;;;0.80;0.60;;;8.40;99.90;;;;;;5090617;28;20443;-82
2021/12/19 11:06:38;;;;;;;0.80;0.60;;;8.30;99.90;;;;;;5088525;28;20461;-82
2021/12/19 11:09:36;;;;;;;0.80;0.60;;;8.40;99.90;;;;;;5084744;28;20445;-82
2021/12/19 11:12:03;;;;;;;0.80;0.60;;;8.40;99.90;;;;;;5087809;28;20438;-82
2021/12/19 11:14:38;;;;;;;0.80;0.60;;;8.30;99.90;;;;;;5065851;28;20446;-83
2021/12/19 11:17:10;;;;;;;0.80;0.60;;;8.30;99.90;;;;;;5084769;28;20468;-82
2021/12/19 11:19:38;;;;;;;0.80;0.60;;;8.30;99.90;;;;;;5086781;28;20941;-81
2021/12/19 11:22:04;;;;;;;0.80;0.60;;;8.30;99.90;;;;;;5087344;28;20471;-83
2021/12/19 11:24:30;;;;;;;1.67;1.10;;;8.30;99.90;;;;;;5089501;28;20775;-83
2021/12/19 11:26:58;;;;;;;0.80;0.60;;;8.40;99.90;;;;;;5090086;28;21045;-82
2021/12/19 11:29:24;;;;;;;0.80;0.60;;;8.40;99.90;;;;;;5089588;28;20637;-82
2021/12/19 11:31:57;;;;;;;0.80;0.60;;;8.50;99.90;;;;;;5085207;28;21339;-81
2021/12/19 11:34:31;;;;;;;0.80;0.60;;;8.40;99.90;;;;;;5083673;28;20439;-81
2021/12/19 11:37:11;;;;;;;0.80;0.60;;;8.40;99.90;;;;;;5086775;28;20442;-80
2021/12/19 11:39:41;;;;;;;0.80;0.60;;;8.50;99.90;;;;;;5086370;28;20792;-81
2021/12/19 11:42:10;;;;;;;0.80;0.60;;;8.80;99.90;;;;;;5087990;28;20450;-80
2021/12/19 11:44:46;;;;;;;0.80;0.60;;;8.90;99.90;;;;;;5085624;28;20494;-81
2021/12/19 11:47:16;;;;;;;0.80;0.60;;;8.70;99.90;;;;;;5089749;28;20941;-81
2021/12/19 11:49:41;;;;;;;0.80;0.60;;;8.80;99.90;;;;;;5091483;28;20439;-81
2021/12/19 11:52:27;;;;;;;0.80;0.60;;;9.00;99.90;;;;;;5089378;28;20956;-79
2021/12/19 11:55:14;;;;;;;0.80;0.60;;;9.00;99.90;;;;;;5065027;28;20216;-81
2021/12/19 11:57:41;;;;;;;0.80;0.50;;;8.90;99.90;;;;;;5101278;28;20504;-81
2021/12/19 12:00:31;;;;;;;0.80;0.60;;;8.90;99.90;;;;;;5086129;28;20424;-81
2021/12/19 12:03:31;;;;;;;0.80;0.50;;;9.00;99.90;;;;;;5070438;28;20438;-81
2021/12/19 12:06:26;;;;;;;0.80;0.60;;;9.00;99.90;;;;;;5039973;28;20470;-81
2021/12/19 12:09:10;;;;;;;0.80;0.60;;;9.20;99.90;;;;;;5070533;28;20810;-80
2021/12/19 12:12:03;;;;;;;0.80;0.50;;;9.20;99.90;;;;;;5088068;28;20446;-81
2021/12/19 12:14:39;;;;;;;0.80;0.60;;;9.20;99.90;;;;;;5069116;28;20527;-82
2021/12/19 12:17:12;;;;;;;0.80;0.50;;;9.20;99.90;;;;;;5071619;28;20477;-79
2021/12/19 12:19:54;;;;;;;0.80;0.60;;;9.10;99.90;;;;;;5081323;28;20926;-79
2021/12/19 12:22:28;;;;;;;0.80;0.60;;;9.00;99.90;;;;;;5089662;28;20505;-81
2021/12/19 12:25:02;;;;;;;0.90;0.60;;;9.30;99.90;;;;;;5088969;28;20568;-79
2021/12/19 12:28:02;;;;;;;0.80;0.60;;;9.50;99.90;;;;;;5088354;28;20443;-82
2021/12/19 12:30:31;;;;;;;0.80;0.60;;;9.30;99.90;;;;;;5088155;28;20600;-82
2021/12/19 12:33:00;;;;;;;0.80;0.60;;;9.10;99.90;;;;;;5088201;28;20446;-82
2021/12/19 12:35:28;;;;;;;2.63;0.80;;;9.40;99.90;;;;;;5089366;28;20431;-83
2021/12/19 12:37:55;;;;;;;0.80;0.50;;;10.20;99.90;;;;;;5089134;28;20435;-81
2021/12/19 12:40:45;;;;;;;0.80;0.50;;;10.60;99.90;;;;;;5087477;28;20442;-81
2021/12/19 12:43:15;;;;;;;0.90;0.50;;;11.20;99.90;;;;;;5069226;28;20446;-82
2021/12/19 12:46:01;;;;;;;0.90;0.50;;;11.80;99.90;;;;;;5088717;28;20481;-83
2021/12/19 12:48:34;;;;;;;0.90;0.50;;;12.00;99.90;;;;;;5082235;28;20550;-84
2021/12/19 12:51:04;;;;;;;0.90;0.60;;;12.20;99.90;;;;;;5086341;28;20451;-83
2021/12/19 12:53:38;;;;;;;0.80;0.50;;;12.10;99.90;;;;;;5089291;28;20953;-83
2021/12/19 12:56:14;;;;;;;6.30;1.30;;;12.30;99.90;;;;;;5080428;28;20445;-84
2021/12/19 12:58:52;;;;;;;1.00;0.80;;;12.30;99.90;;;;;;5088728;28;20446;-81
2021/12/19 13:01:34;;;;;;;0.90;0.50;;;12.40;99.90;;;;;;5086972;28;20492;-82
2021/12/19 13:04:11;;;;;;;0.90;0.60;;;12.50;99.90;;;;;;5088796;28;20455;-82
2021/12/19 13:06:44;;;;;;;0.90;0.60;;;12.70;99.90;;;;;;5087197;28;20514;-82
2021/12/19 13:09:28;;;;;;;0.90;0.50;;;13.10;99.90;;;;;;5069142;28;20807;-82
2021/12/19 13:12:11;;;;;;;0.90;0.50;;;12.90;99.90;;;;;;5071115;28;20529;-83
2021/12/19 13:14:41;;;;;;;0.90;0.50;;;12.70;99.90;;;;;;5089560;28;21252;-83
2021/12/19 13:17:10;;;;;;;0.90;0.50;;;12.80;99.90;;;;;;5088572;28;20430;-83
2021/12/19 13:19:38;;;;;;;0.83;0.50;;;12.90;99.90;;;;;;5083815;28;20445;-81
2021/12/19 13:22:24;;;;;;;1.97;1.83;;;13.00;99.90;;;;;;5088506;28;20469;-82
2021/12/19 13:24:51;;;;;;;1.60;0.67;;;12.60;99.90;;;;;;5037259;28;20469;-83
2021/12/19 13:27:23;;;;;;;0.90;0.50;;;12.60;99.90;;;;;;5070741;28;20434;-82
2021/12/19 13:30:04;;;;;;;0.90;0.50;;;12.30;99.90;;;;;;5067754;28;20526;-82
2021/12/19 13:32:50;;;;;;;0.90;0.50;;;12.00;99.90;;;;;;5086964;28;20427;-83
2021/12/19 13:35:26;;;;;;;0.90;0.50;;;11.70;99.90;;;;;;5088692;28;20528;-83
2021/12/19 13:38:04;;;;;;;0.90;0.50;;;11.30;99.90;;;;;;5070684;28;20427;-81
2021/12/19 13:40:35;;;;;;;0.80;0.50;;;11.10;99.90;;;;;;5062198;28;20477;-83
2021/12/19 13:43:08;;;;;;;0.80;0.50;;;10.90;99.90;;;;;;5070705;28;20435;-82
2021/12/19 13:45:42;;;;;;;0.90;0.50;;;10.50;99.90;;;;;;5082249;28;20842;-84
2021/12/19 13:48:14;;;;;;;0.87;0.50;;;10.10;99.90;;;;;;5088151;28;20418;-83
2021/12/19 13:50:44;;;;;;;0.90;0.50;;;9.80;99.90;;;;;;5089703;28;20431;-82
2021/12/19 13:53:12;;;;;;;0.90;0.60;;;9.60;99.90;;;;;;5090905;28;20487;-82
2021/12/19 13:55:45;;;;;;;0.90;0.70;;;9.30;99.90;;;;;;5087954;28;20841;-79
2021/12/19 13:58:11;;;;;;;0.80;0.60;;;9.10;99.90;;;;;;5073357;28;20427;-79
2021/12/19 14:00:44;;;;;;;0.90;0.60;;;9.00;99.90;;;;;;5091899;28;20434;-82
2021/12/19 14:03:10;;;;;;;0.90;0.60;;;8.90;99.90;;;;;;5100910;28;20433;-83
2021/12/19 14:05:54;;;;;;;0.80;0.60;;;8.80;99.90;;;;;;5088634;28;20497;-83
2021/12/19 14:08:21;;;;;;;0.80;0.60;;;8.80;99.90;;;;;;5093980;28;20433;-82
2021/12/19 14:11:16;;;;;;;2.23;1.97;;;8.60;99.90;;;;;;5086174;28;20458;-84
2021/12/19 14:13:56;;;;;;;0.80;0.60;;;8.60;99.90;;;;;;5067322;28;20515;-83